createdAt,value
2022-11-03T00:02:07.737Z,9.20
2022-11-03T00:04:34.868Z,9.26
2022-11-03T00:07:01.664Z,9.35
2022-11-03T00:09:28.424Z,9.46
2022-11-03T00:11:55.465Z,9.54
2022-11-03T00:14:22.440Z,9.61
2022-11-03T00:16:49.658Z,9.71
2022-11-03T00:19:17.491Z,9.78
2022-11-03T00:21:45.221Z,9.83
2022-11-03T00:24:13.120Z,9.89
2022-11-03T00:26:40.295Z,9.91
2022-11-03T00:29:12.343Z,9.98
2022-11-03T00:31:41.316Z,10.00
2022-11-03T00:34:08.803Z,10.02
2022-11-03T00:36:38.592Z,10.05
2022-11-03T00:39:06.532Z,10.09
2022-11-03T00:41:33.703Z,10.09
2022-11-03T00:44:00.568Z,10.05
2022-11-03T00:46:27.924Z,10.04
2022-11-03T00:48:55.039Z,10.08
2022-11-03T00:51:24.859Z,10.11
2022-11-03T00:53:56.751Z,10.07
2022-11-03T00:56:35.400Z,10.05
2022-11-03T00:59:03.364Z,10.03
2022-11-03T01:01:47.593Z,9.99
2022-11-03T01:04:36.002Z,9.94
2022-11-03T01:07:05.859Z,9.86
2022-11-03T01:09:37.177Z,9.86
2022-11-03T01:12:09.368Z,9.82
2022-11-03T01:14:39.162Z,9.76
2022-11-03T01:17:18.309Z,9.75
2022-11-03T01:19:45.298Z,9.68
2022-11-03T01:22:13.158Z,9.59
2022-11-03T01:24:41.615Z,9.50
2022-11-03T01:27:14.044Z,9.37
2022-11-03T01:29:41.339Z,9.28
2022-11-03T01:32:08.954Z,9.23
2022-11-03T01:34:36.145Z,9.13
2022-11-03T01:37:03.650Z,9.05
2022-11-03T01:39:30.440Z,9.02
2022-11-03T01:41:57.568Z,9.00
2022-11-03T01:44:27.486Z,8.98
2022-11-03T01:47:03.058Z,8.99
2022-11-03T01:49:42.061Z,9.00
2022-11-03T01:52:36.762Z,8.99
2022-11-03T01:55:17.385Z,8.98
2022-11-03T01:58:08.310Z,9.05
2022-11-03T02:00:36.232Z,9.06
2022-11-03T02:03:04.202Z,9.09
2022-11-03T02:05:31.510Z,9.10
2022-11-03T02:08:24.460Z,9.12
2022-11-03T02:10:52.183Z,9.12
2022-11-03T02:13:22.356Z,9.12
2022-11-03T02:15:52.751Z,9.13
2022-11-03T02:18:24.719Z,9.12
2022-11-03T02:21:21.272Z,9.06
2022-11-03T02:23:59.086Z,9.05
2022-11-03T02:26:27.454Z,9.02
2022-11-03T02:28:54.641Z,8.94
2022-11-03T02:31:27.822Z,8.86
2022-11-03T02:33:57.197Z,8.80
2022-11-03T02:36:42.859Z,8.72
2022-11-03T02:39:16.564Z,8.65
2022-11-03T02:41:46.607Z,8.58
2022-11-03T02:44:18.981Z,8.48
2022-11-03T02:46:52.275Z,8.43
2022-11-03T02:49:18.994Z,8.37
2022-11-03T02:51:46.023Z,8.32
2022-11-03T02:54:29.953Z,8.24
2022-11-03T02:57:02.284Z,8.17
2022-11-03T02:59:37.817Z,8.17
2022-11-03T03:02:17.094Z,8.11
2022-11-03T03:04:49.794Z,8.06
2022-11-03T03:07:26.567Z,8.05
2022-11-03T03:10:10.932Z,8.04
2022-11-03T03:12:43.353Z,8.05
2022-11-03T03:15:10.376Z,8.04
2022-11-03T03:17:46.283Z,8.09
2022-11-03T03:20:18.856Z,8.11
2022-11-03T03:23:00.622Z,8.13
2022-11-03T03:25:30.458Z,8.19
2022-11-03T03:28:02.674Z,8.21
2022-11-03T03:30:32.346Z,8.20
2022-11-03T03:33:01.401Z,8.19
2022-11-03T03:35:30.942Z,8.21
2022-11-03T03:38:21.809Z,8.21
2022-11-03T03:40:52.733Z,8.25
2022-11-03T03:43:21.921Z,8.29
2022-11-03T03:45:52.698Z,8.41
2022-11-03T03:48:19.728Z,8.48
2022-11-03T03:50:49.691Z,8.58
2022-11-03T03:53:18.877Z,8.62
2022-11-03T03:55:51.482Z,8.67
2022-11-03T03:58:18.636Z,8.70
2022-11-03T04:00:46.154Z,8.81
2022-11-03T04:03:21.701Z,8.88
2022-11-03T04:05:49.167Z,8.93
2022-11-03T04:08:17.039Z,8.98
2022-11-03T04:11:03.633Z,8.97
2022-11-03T04:13:49.458Z,8.97
2022-11-03T04:16:35.806Z,9.02
2022-11-03T04:19:21.455Z,9.04
2022-11-03T04:22:07.002Z,9.06
2022-11-03T04:24:33.752Z,9.02
2022-11-03T04:27:24.997Z,8.91
2022-11-03T04:29:52.705Z,8.85
2022-11-03T04:32:19.779Z,8.70
2022-11-03T04:34:47.469Z,8.56
2022-11-03T04:37:16.049Z,8.46
2022-11-03T04:42:20.856Z,8.20
2022-11-03T04:44:49.246Z,8.12
2022-11-03T04:47:18.099Z,8.05
2022-11-03T04:49:47.275Z,7.98
2022-11-03T04:52:23.506Z,7.89
2022-11-03T04:54:53.630Z,7.80
2022-11-03T04:57:20.737Z,7.69
2022-11-03T04:59:50.630Z,7.60
2022-11-03T05:02:21.968Z,7.48
2022-11-03T05:04:48.953Z,7.38
2022-11-03T05:07:18.730Z,7.25
2022-11-03T05:09:45.724Z,7.17
2022-11-03T05:12:12.484Z,7.06
2022-11-03T05:14:39.526Z,6.97
2022-11-03T05:17:27.657Z,6.86
2022-11-03T05:20:03.641Z,6.81
2022-11-03T05:22:35.917Z,6.78
2022-11-03T05:25:30.765Z,6.76
2022-11-03T05:27:57.532Z,6.80
2022-11-03T05:30:24.823Z,6.82
2022-11-03T05:32:52.658Z,6.87
2022-11-03T05:35:23.053Z,6.91
2022-11-03T05:37:51.330Z,6.97
2022-11-03T05:40:26.222Z,7.00
2022-11-03T05:43:01.072Z,7.05
2022-11-03T05:45:33.648Z,7.12
2022-11-03T05:48:02.120Z,7.28
2022-11-03T05:50:33.389Z,7.62
2022-11-03T05:53:12.375Z,8.02
2022-11-03T05:55:40.082Z,8.44
2022-11-03T05:58:20.005Z,8.86
2022-11-03T06:00:48.962Z,9.16
2022-11-03T06:03:30.851Z,9.55
2022-11-03T06:06:00.229Z,10.04
2022-11-03T06:08:33.979Z,10.49
2022-11-03T06:11:02.553Z,10.81
2022-11-03T06:13:36.659Z,11.05
2022-11-03T06:16:16.111Z,11.42
2022-11-03T06:18:42.853Z,11.84
2022-11-03T06:21:16.261Z,12.22
2022-11-03T06:23:43.381Z,12.68
2022-11-03T06:26:20.587Z,13.14
2022-11-03T06:28:49.254Z,13.57
2022-11-03T06:31:24.611Z,13.96
2022-11-03T06:33:52.718Z,14.21
2022-11-03T06:36:26.369Z,14.43
2022-11-03T06:38:56.736Z,14.83
2022-11-03T06:41:27.483Z,15.23
2022-11-03T06:43:54.742Z,15.87
2022-11-03T06:46:24.199Z,16.63
2022-11-03T06:48:55.392Z,16.97
2022-11-03T06:51:25.823Z,17.56
2022-11-03T06:53:54.272Z,18.06
2022-11-03T06:56:36.940Z,18.58
2022-11-03T06:59:03.724Z,18.79
2022-11-03T07:01:35.388Z,18.97
2022-11-03T07:04:16.399Z,19.36
2022-11-03T07:06:45.164Z,19.78
2022-11-03T07:09:21.741Z,19.88
2022-11-03T07:11:55.222Z,20.31
2022-11-03T07:14:25.450Z,20.64
2022-11-03T07:17:04.900Z,20.93
2022-11-03T07:19:41.891Z,21.10
2022-11-03T07:22:15.096Z,21.46
2022-11-03T07:24:45.895Z,21.72
2022-11-03T07:27:12.905Z,21.75
2022-11-03T07:29:39.763Z,21.89
2022-11-03T07:32:18.938Z,22.27
2022-11-03T07:34:46.098Z,22.50
2022-11-03T07:37:20.203Z,23.11
2022-11-03T07:39:47.588Z,23.67
2022-11-03T07:42:19.524Z,24.12
2022-11-03T07:44:46.616Z,24.54
2022-11-03T07:47:16.155Z,24.79
2022-11-03T07:49:42.933Z,25.19
2022-11-03T07:52:13.382Z,25.58
2022-11-03T07:54:40.430Z,25.98
2022-11-03T07:57:22.314Z,26.22
2022-11-03T07:59:58.497Z,26.60
2022-11-03T08:02:39.737Z,26.78
2022-11-03T08:05:06.995Z,27.03
2022-11-03T08:07:34.127Z,27.08
2022-11-03T08:10:00.826Z,26.77
2022-11-03T08:12:27.878Z,26.05
2022-11-03T08:14:54.648Z,25.52
2022-11-03T08:17:21.795Z,25.46
2022-11-03T08:19:48.568Z,25.80
2022-11-03T08:22:15.681Z,26.07
2022-11-03T08:24:42.404Z,26.44
2022-11-03T08:27:09.468Z,26.66
2022-11-03T08:29:36.273Z,26.67
2022-11-03T08:32:03.426Z,26.47
2022-11-03T08:34:30.140Z,26.33
2022-11-03T08:36:57.283Z,26.41
2022-11-03T08:39:24.055Z,26.50
2022-11-03T08:41:51.091Z,26.79
2022-11-03T08:44:17.813Z,27.28
2022-11-03T08:46:44.892Z,27.79
2022-11-03T08:49:11.619Z,28.30
2022-11-03T08:51:43.942Z,28.81
2022-11-03T08:54:11.288Z,28.81
2022-11-03T08:56:38.326Z,29.09
2022-11-03T08:59:05.070Z,29.20
2022-11-03T09:01:32.141Z,29.44
2022-11-03T09:03:59.046Z,29.68
2022-11-03T09:06:26.199Z,30.08
2022-11-03T09:11:40.073Z,30.51
2022-11-03T09:14:06.822Z,30.41
2022-11-03T09:16:33.653Z,30.82
2022-11-03T09:19:00.692Z,30.85
2022-11-03T09:21:27.453Z,30.76
2022-11-03T09:23:54.301Z,30.24
2022-11-03T09:26:21.841Z,29.20
2022-11-03T09:28:49.653Z,27.85
2022-11-03T09:31:17.319Z,26.01
2022-11-03T09:33:44.295Z,24.35
2022-11-03T09:36:11.549Z,23.00
2022-11-03T09:38:38.314Z,23.29
2022-11-03T09:41:13.657Z,24.10
2022-11-03T09:43:54.101Z,24.31
2022-11-03T09:46:21.240Z,24.80
2022-11-03T09:48:48.031Z,25.25
2022-11-03T09:51:20.754Z,25.34
2022-11-03T09:53:48.399Z,25.20
2022-11-03T09:56:21.574Z,24.20
2022-11-03T09:58:53.081Z,24.14
2022-11-03T10:01:22.384Z,24.12
2022-11-03T10:03:49.537Z,23.69
2022-11-03T10:06:17.678Z,23.04
2022-11-03T10:08:47.667Z,22.59
2022-11-03T10:11:15.722Z,22.86
2022-11-03T10:13:47.721Z,23.43
2022-11-03T10:16:23.320Z,23.34
2022-11-03T10:18:51.106Z,22.35
2022-11-03T10:21:23.583Z,21.10
2022-11-03T10:23:50.802Z,19.80
2022-11-03T10:26:19.741Z,19.50
2022-11-03T10:29:04.483Z,19.80
2022-11-03T10:31:32.659Z,20.22
2022-11-03T10:33:59.820Z,20.32
2022-11-03T10:36:29.906Z,20.64
2022-11-03T10:38:57.366Z,20.82
2022-11-03T10:41:29.828Z,21.05
2022-11-03T10:44:11.802Z,20.99
2022-11-03T10:46:55.830Z,20.83
2022-11-03T10:49:23.129Z,21.04
2022-11-03T10:51:52.767Z,21.18
2022-11-03T10:54:23.821Z,20.63
2022-11-03T10:56:52.418Z,20.82
2022-11-03T10:59:22.564Z,20.67
2022-11-03T11:01:49.841Z,20.28
2022-11-03T11:04:19.153Z,20.64
2022-11-03T11:06:46.877Z,21.07
2022-11-03T11:09:20.715Z,21.58
2022-11-03T11:12:15.503Z,22.13
2022-11-03T11:14:55.576Z,22.66
2022-11-03T11:17:37.651Z,23.08
2022-11-03T11:20:22.727Z,22.60
2022-11-03T11:22:50.844Z,22.37
2022-11-03T11:25:21.018Z,22.95
2022-11-03T11:27:58.246Z,23.09
2022-11-03T11:30:31.178Z,23.74
2022-11-03T11:33:13.579Z,23.06
2022-11-03T11:35:40.580Z,22.92
2022-11-03T11:38:44.955Z,23.36
2022-11-03T11:41:11.695Z,24.39
2022-11-03T11:43:38.795Z,24.52
2022-11-03T11:46:20.818Z,23.97
2022-11-03T11:48:57.068Z,23.92
2022-11-03T11:51:24.742Z,24.07
2022-11-03T11:54:09.946Z,23.98
2022-11-03T11:56:44.078Z,23.70
2022-11-03T11:59:37.640Z,23.71
2022-11-03T12:02:17.029Z,24.19
2022-11-03T12:04:47.185Z,24.55
2022-11-03T12:07:14.109Z,25.01
2022-11-03T12:09:41.894Z,25.80
2022-11-03T12:12:09.097Z,26.52
2022-11-03T12:14:39.769Z,26.82
2022-11-03T12:17:19.220Z,27.01
2022-11-03T12:19:51.102Z,26.68
2022-11-03T12:22:24.027Z,25.99
2022-11-03T12:24:57.722Z,25.76
2022-11-03T12:27:24.662Z,24.85
2022-11-03T12:29:52.211Z,24.25
2022-11-03T12:32:32.854Z,23.98
2022-11-03T12:35:06.013Z,24.20
2022-11-03T12:37:32.988Z,24.73
2022-11-03T12:39:59.830Z,25.34
2022-11-03T12:42:27.069Z,25.91
2022-11-03T12:44:53.952Z,26.16
2022-11-03T12:47:20.994Z,26.33
2022-11-03T12:49:48.872Z,26.37
2022-11-03T12:52:15.792Z,26.54
2022-11-03T12:54:42.917Z,26.80
2022-11-03T12:57:09.910Z,27.09
2022-11-03T12:59:37.143Z,27.22
2022-11-03T13:02:04.611Z,27.30
2022-11-03T13:04:31.919Z,27.39
2022-11-03T13:06:58.757Z,27.49
2022-11-03T13:09:26.132Z,27.51
2022-11-03T13:12:11.680Z,27.52
2022-11-03T13:14:38.761Z,27.51
2022-11-03T13:17:05.532Z,27.62
2022-11-03T13:19:32.647Z,27.69
2022-11-03T13:22:00.034Z,27.70
2022-11-03T13:24:27.153Z,27.67
2022-11-03T13:26:53.874Z,27.55
2022-11-03T13:29:20.919Z,27.48
2022-11-03T13:31:47.682Z,27.48
2022-11-03T13:34:14.739Z,27.29
2022-11-03T13:36:41.588Z,27.05
2022-11-03T13:39:08.610Z,26.87
2022-11-03T13:41:36.001Z,26.56
2022-11-03T13:44:02.990Z,26.38
2022-11-03T13:46:29.841Z,26.10
2022-11-03T13:51:43.591Z,25.24
2022-11-03T13:59:44.618Z,23.67
2022-11-03T14:04:59.452Z,21.85
2022-11-03T14:07:26.948Z,21.00
2022-11-03T14:09:55.867Z,20.29
2022-11-03T14:12:34.836Z,19.47
2022-11-03T14:15:07.502Z,18.72
2022-11-03T14:17:34.381Z,18.25
2022-11-03T14:20:04.456Z,17.83
2022-11-03T14:22:31.811Z,17.47
2022-11-03T14:24:59.389Z,17.13
2022-11-03T14:27:26.267Z,16.75
2022-11-03T14:29:53.474Z,16.29
2022-11-03T14:32:20.664Z,15.89
2022-11-03T14:34:48.366Z,15.58
2022-11-03T14:37:16.047Z,15.32
2022-11-03T14:39:43.378Z,15.07
2022-11-03T14:42:16.660Z,14.84
2022-11-03T14:44:45.753Z,14.59
2022-11-03T14:47:15.474Z,14.32
2022-11-03T14:49:42.209Z,14.06
2022-11-03T14:52:09.677Z,13.82
2022-11-03T14:54:36.715Z,13.56
2022-11-03T14:57:04.723Z,13.25
2022-11-03T14:59:32.037Z,13.01
2022-11-03T15:01:59.966Z,12.78
2022-11-03T15:04:27.128Z,12.53
2022-11-03T15:06:54.585Z,12.27
2022-11-03T15:09:21.537Z,12.03
2022-11-03T15:11:48.536Z,11.71
2022-11-03T15:14:15.581Z,11.29
2022-11-03T15:16:43.055Z,10.94
2022-11-03T15:19:09.849Z,10.63
2022-11-03T15:21:36.897Z,10.49
2022-11-03T15:26:50.898Z,10.06
2022-11-03T15:29:17.738Z,9.84
2022-11-03T15:31:47.835Z,9.66
2022-11-03T15:34:16.200Z,9.40
2022-11-03T15:36:43.463Z,9.23
2022-11-03T15:39:10.230Z,9.02
2022-11-03T15:41:37.287Z,8.81
2022-11-03T15:44:04.040Z,8.64
2022-11-03T15:46:31.132Z,8.46
2022-11-03T15:48:57.997Z,8.30
2022-11-03T15:51:25.421Z,8.17
2022-11-03T15:53:57.821Z,8.00
2022-11-03T15:56:27.045Z,7.86
2022-11-03T15:58:53.843Z,7.72
2022-11-03T16:01:21.578Z,7.59
2022-11-03T16:03:48.534Z,7.48
2022-11-03T16:06:16.010Z,7.34
2022-11-03T16:08:42.988Z,7.27
2022-11-03T16:11:09.784Z,7.16
2022-11-03T16:13:36.788Z,7.06
2022-11-03T16:16:03.669Z,6.97
2022-11-03T16:18:30.734Z,6.86
2022-11-03T16:20:57.463Z,6.70
2022-11-03T16:23:24.523Z,6.62
2022-11-03T16:25:51.251Z,6.48
2022-11-03T16:28:18.331Z,6.34
2022-11-03T16:30:49.720Z,6.26
2022-11-03T16:33:20.008Z,6.15
2022-11-03T16:35:46.772Z,6.08
2022-11-03T16:38:15.366Z,5.96
2022-11-03T16:40:42.770Z,5.88
2022-11-03T16:43:09.848Z,5.83
2022-11-03T16:45:38.202Z,5.76
2022-11-03T16:48:07.068Z,5.68
2022-11-03T16:50:34.558Z,5.61
2022-11-03T16:53:01.666Z,5.55
2022-11-03T16:55:28.451Z,5.49
2022-11-03T16:57:55.587Z,5.41
2022-11-03T17:00:24.157Z,5.34
2022-11-03T17:02:51.658Z,5.29
2022-11-03T17:05:20.887Z,5.22
2022-11-03T17:07:53.766Z,5.17
2022-11-03T17:10:21.723Z,5.06
2022-11-03T17:12:49.515Z,5.03
2022-11-03T17:15:17.397Z,4.96
2022-11-03T17:17:44.720Z,4.91
2022-11-03T17:20:12.341Z,4.89
2022-11-03T17:22:39.678Z,4.82
2022-11-03T17:25:09.545Z,4.74
2022-11-03T17:27:54.137Z,4.68
2022-11-03T17:30:22.119Z,4.63
2022-11-03T17:32:53.256Z,4.59
2022-11-03T17:35:25.792Z,4.51
2022-11-03T17:37:53.284Z,4.48
2022-11-03T17:40:22.996Z,4.46
2022-11-03T17:42:50.722Z,4.40
2022-11-03T17:45:20.187Z,4.36
2022-11-03T17:47:49.681Z,4.35
2022-11-03T17:50:17.487Z,4.34
2022-11-03T17:52:46.578Z,4.30
2022-11-03T17:55:25.966Z,4.25
2022-11-03T17:57:54.736Z,4.22
2022-11-03T18:00:22.394Z,4.19
2022-11-03T18:02:50.721Z,4.13
2022-11-03T18:05:30.368Z,4.11
2022-11-03T18:07:59.470Z,4.08
2022-11-03T18:10:30.510Z,4.06
2022-11-03T18:13:17.228Z,4.03
2022-11-03T18:15:52.714Z,4.00
2022-11-03T18:18:22.292Z,3.95
2022-11-03T18:20:53.404Z,3.89
2022-11-03T18:23:26.736Z,3.86
2022-11-03T18:25:53.832Z,3.82
2022-11-03T18:28:21.268Z,3.77
2022-11-03T18:30:51.284Z,3.74
2022-11-03T18:33:32.951Z,3.70
2022-11-03T18:36:02.851Z,3.71
2022-11-03T18:38:30.365Z,3.69
2022-11-03T18:40:57.181Z,3.67
2022-11-03T18:43:25.518Z,3.64
2022-11-03T18:45:52.979Z,3.63
2022-11-03T18:48:20.281Z,3.64
2022-11-03T18:50:49.909Z,3.57
2022-11-03T18:53:18.663Z,3.53
2022-11-03T18:55:45.594Z,3.48
2022-11-03T18:58:23.672Z,3.47
2022-11-03T19:00:53.716Z,3.45
2022-11-03T19:03:23.224Z,3.42
2022-11-03T19:05:50.842Z,3.35
2022-11-03T19:08:27.149Z,3.29
2022-11-03T19:10:55.742Z,3.25
2022-11-03T19:13:29.842Z,3.19
2022-11-03T19:15:58.589Z,3.15
2022-11-03T19:18:27.479Z,3.09
2022-11-03T19:20:54.365Z,3.03
2022-11-03T19:23:21.409Z,2.99
2022-11-03T19:25:49.972Z,2.96
2022-11-03T19:28:20.630Z,2.93
2022-11-03T19:30:48.028Z,2.90
2022-11-03T19:33:21.258Z,2.85
2022-11-03T19:35:48.933Z,2.87
2022-11-03T19:38:18.033Z,2.87
2022-11-03T19:41:04.941Z,2.85
2022-11-03T19:43:34.806Z,2.79
2022-11-03T19:46:02.526Z,2.76
2022-11-03T19:48:33.298Z,2.76
2022-11-03T19:51:00.233Z,2.75
2022-11-03T19:53:29.805Z,2.75
2022-11-03T19:55:57.159Z,2.73
2022-11-03T19:58:26.522Z,2.70
2022-11-03T20:00:54.171Z,2.69
2022-11-03T20:03:22.361Z,2.64
2022-11-03T20:05:53.571Z,2.62
2022-11-03T20:08:23.446Z,2.55
2022-11-03T20:10:50.478Z,2.52
2022-11-03T20:13:23.381Z,2.50
2022-11-03T20:15:57.258Z,2.47
2022-11-03T20:18:27.600Z,2.45
2022-11-03T20:20:54.379Z,2.43
2022-11-03T20:23:29.785Z,2.41
2022-11-03T20:25:56.913Z,2.39
2022-11-03T20:28:27.641Z,2.38
2022-11-03T20:30:55.762Z,2.37
2022-11-03T20:33:24.463Z,2.33
2022-11-03T20:35:53.395Z,2.27
2022-11-03T20:38:21.303Z,2.20
2022-11-03T20:40:51.399Z,2.13
2022-11-03T20:43:28.293Z,2.06
2022-11-03T20:45:55.731Z,2.04
2022-11-03T20:48:23.642Z,2.04
2022-11-03T20:50:51.498Z,1.99
2022-11-03T20:53:21.325Z,1.95
2022-11-03T20:55:48.887Z,1.90
2022-11-03T20:58:17.923Z,1.88
2022-11-03T21:00:47.479Z,1.86
2022-11-03T21:03:44.960Z,1.81
2022-11-03T21:06:08.817Z,1.75
2022-11-03T21:08:35.558Z,1.68
2022-11-03T21:11:23.310Z,1.64
2022-11-03T21:14:22.053Z,1.55
2022-11-03T21:17:07.850Z,1.51
2022-11-03T21:19:53.773Z,1.50
2022-11-03T21:22:51.424Z,1.45
2022-11-03T21:25:17.726Z,1.42
2022-11-03T21:27:45.287Z,1.39
2022-11-03T21:30:14.173Z,1.35
2022-11-03T21:32:41.308Z,1.32
2022-11-03T21:35:13.463Z,1.28
2022-11-03T21:37:40.375Z,1.23
2022-11-03T21:40:07.357Z,1.23
2022-11-03T21:42:53.001Z,1.18
2022-11-03T21:45:20.375Z,1.16
2022-11-03T21:48:12.906Z,1.15
2022-11-03T21:50:40.052Z,1.13
2022-11-03T21:53:07.409Z,1.12
2022-11-03T21:55:34.528Z,1.13
2022-11-03T21:58:01.834Z,1.13
2022-11-03T22:00:28.901Z,1.10
2022-11-03T22:02:55.978Z,1.08
2022-11-03T22:05:22.741Z,1.04
2022-11-03T22:07:49.649Z,1.01
2022-11-03T22:10:16.264Z,0.99
2022-11-03T22:12:43.162Z,0.96
2022-11-03T22:15:28.677Z,0.93
2022-11-03T22:18:02.424Z,0.94
2022-11-03T22:20:47.766Z,0.94
2022-11-03T22:23:34.230Z,0.90
2022-11-03T22:26:19.887Z,0.85
2022-11-03T22:29:06.781Z,0.80
2022-11-03T22:31:42.484Z,0.78
2022-11-03T22:34:28.118Z,0.75
2022-11-03T22:36:54.772Z,0.75
2022-11-03T22:39:40.219Z,0.76
2022-11-03T22:42:25.495Z,0.72
2022-11-03T22:45:10.873Z,0.73
2022-11-03T22:47:37.523Z,0.69
2022-11-03T22:50:04.603Z,0.68
2022-11-03T22:52:31.246Z,0.67
2022-11-03T22:54:58.595Z,0.59
2022-11-03T22:57:25.203Z,0.54
2022-11-03T22:59:52.132Z,0.52
2022-11-03T23:02:18.863Z,0.50
2022-11-03T23:04:46.132Z,0.49
2022-11-03T23:07:12.768Z,0.43
2022-11-03T23:09:39.706Z,0.41
2022-11-03T23:12:06.459Z,0.36
2022-11-03T23:14:53.036Z,0.33
2022-11-03T23:17:19.955Z,0.31
2022-11-03T23:20:05.272Z,0.24
2022-11-03T23:22:32.223Z,0.20
2022-11-03T23:25:01.783Z,0.15
2022-11-03T23:27:28.793Z,0.07
2022-11-03T23:29:55.464Z,-0.03
2022-11-03T23:32:22.415Z,-0.12
2022-11-03T23:34:49.095Z,-0.20
2022-11-03T23:37:16.013Z,-0.20
2022-11-03T23:39:42.637Z,-0.25
2022-11-03T23:42:09.270Z,-0.27
2022-11-03T23:44:54.775Z,-0.30
2022-11-03T23:47:40.068Z,-0.30
2022-11-03T23:50:07.168Z,-0.28
2022-11-03T23:52:33.865Z,-0.28
2022-11-03T23:55:00.823Z,-0.24
2022-11-03T23:57:46.160Z,-0.20
